Time;durP1;ratioP1;P1;durP2;ratioP2;P2;SDS_P1;SDS_P2;PMS_P1;PMS_P2;Temp;Humidity;BMP_temperature;BMP_pressure;BME280_temperature;BME280_humidity;BME280_pressure;Samples;Min_cycle;Max_cycle;Signal;HPM_P1;HPM_P2
2023/06/29 00:02:24;;;;;;;;;30.67;28.67;;;;;20.89;84.92;101367.88;5053400;28;45542;-76
2023/06/29 00:04:50;;;;;;;;;27.67;24.33;;;;;20.92;84.48;101373.06;5043786;28;45441;-76
2023/06/29 00:07:15;;;;;;;;;36.00;30.00;;;;;20.95;85.03;101370.19;5041894;28;47210;-76
2023/06/29 00:09:41;;;;;;;;;31.67;27.00;;;;;20.77;85.23;101340.84;5059028;28;45439;-75
2023/06/29 00:12:06;;;;;;;;;32.67;28.33;;;;;20.96;84.95;101370.09;5059945;28;45305;-76
2023/06/29 00:14:32;;;;;;;;;38.33;30.67;;;;;20.96;84.41;101367.44;5044299;28;45419;-74
2023/06/29 00:16:57;;;;;;;;;29.33;27.33;;;;;20.94;85.34;101366.66;5040078;28;46472;-76
2023/06/29 00:19:22;;;;;;;;;40.00;31.00;;;;;20.89;84.71;101359.84;5040009;28;45475;-75
2023/06/29 00:21:48;;;;;;;;;40.00;30.33;;;;;20.74;85.18;101338.34;5040573;28;45442;-76
2023/06/29 00:24:14;;;;;;;;;34.67;26.33;;;;;20.91;85.09;101366.81;5040063;28;45797;-73
2023/06/29 00:26:39;;;;;;;;;33.33;29.67;;;;;20.89;85.19;101358.00;5040000;28;45872;-75
2023/06/29 00:29:05;;;;;;;;;32.00;27.67;;;;;20.86;85.28;101352.84;5040170;28;45257;-77
2023/06/29 00:31:31;;;;;;;;;32.00;28.33;;;;;20.90;85.39;101356.19;5055180;28;45627;-76
2023/06/29 00:33:56;;;;;;;;;33.00;31.33;;;;;20.86;85.47;101353.69;5050061;28;45364;-75
2023/06/29 00:36:22;;;;;;;;;40.67;31.67;;;;;20.69;86.07;101333.25;5054121;28;45458;-76
2023/06/29 00:38:48;;;;;;;;;33.33;29.33;;;;;20.80;85.86;101347.84;5059695;28;45311;-74
2023/06/29 00:41:13;;;;;;;;;31.67;27.33;;;;;20.83;85.20;101351.19;5060231;28;45304;-75
2023/06/29 00:43:41;;;;;;;;;34.00;29.00;;;;;20.80;85.76;101350.53;5060357;28;45449;-77
2023/06/29 00:46:09;;;;;;;;;33.33;31.67;;;;;20.65;86.11;101322.75;5059721;28;45695;-77
2023/06/29 00:48:38;;;;;;;;;38.33;32.33;;;;;20.81;86.24;101350.44;5059723;28;45407;-77
2023/06/29 00:51:04;;;;;;;;;32.67;28.33;;;;;20.84;86.65;101344.00;5059691;28;45420;-77
2023/06/29 00:53:30;;;;;;;;;30.00;28.00;;;;;20.83;86.12;101347.66;5060194;28;45357;-78
2023/06/29 00:55:58;;;;;;;;;41.33;34.00;;;;;20.76;86.19;101335.56;5059616;28;45988;-77
2023/06/29 00:58:24;;;;;;;;;40.00;30.67;;;;;20.81;86.40;101344.19;5059693;28;45228;-77
2023/06/29 01:00:50;;;;;;;;;31.00;29.00;;;;;20.74;86.00;101341.00;5059350;28;45454;-76
2023/06/29 01:03:15;;;;;;;;;40.33;31.00;;;;;20.80;86.10;101345.16;5059838;28;45459;-77
2023/06/29 01:05:41;;;;;;;;;39.33;32.33;;;;;20.76;86.09;101340.94;5059614;28;46413;-77
2023/06/29 01:08:17;;;;;;;;;31.00;28.00;;;;;20.77;86.59;101337.31;5059554;28;45399;-77
2023/06/29 01:10:45;;;;;;;;;33.67;30.67;;;;;20.71;86.68;101327.81;5059235;28;45528;-77
2023/06/29 01:13:13;;;;;;;;;40.33;30.00;;;;;20.74;86.39;101326.75;5060020;28;45281;-78
2023/06/29 01:15:40;;;;;;;;;38.00;32.33;;;;;20.76;86.12;101330.22;5059382;28;45294;-77
2023/06/29 01:18:07;;;;;;;;;33.33;27.00;;;;;20.69;86.84;101317.19;5059253;28;45327;-77
2023/06/29 01:20:33;;;;;;;;;38.67;30.33;;;;;20.74;86.39;101329.44;5059572;28;45328;-77
2023/06/29 01:23:14;;;;;;;;;39.33;31.33;;;;;20.68;86.56;101323.50;5059406;28;45274;-76
2023/06/29 01:25:41;;;;;;;;;39.00;33.33;;;;;20.73;86.57;101325.03;5059046;28;46598;-76
2023/06/29 01:28:09;;;;;;;;;36.67;31.00;;;;;20.73;86.86;101328.56;5059293;28;45454;-75
2023/06/29 01:30:48;;;;;;;;;35.67;29.00;;;;;20.71;86.55;101325.13;5059318;28;45343;-74
2023/06/29 01:33:19;;;;;;;;;33.67;29.00;;;;;20.72;86.58;101326.84;5059449;28;45468;-75
2023/06/29 01:35:45;;;;;;;;;40.67;33.33;;;;;20.64;86.94;101324.56;5058832;28;46674;-76
2023/06/29 01:38:19;;;;;;;;;36.33;31.67;;;;;20.68;86.50;101330.63;5059186;28;45363;-76
2023/06/29 01:40:48;;;;;;;;;39.67;33.33;;;;;20.65;86.10;101325.41;5058949;28;45418;-75
2023/06/29 01:43:16;;;;;;;;;38.67;32.67;;;;;20.60;87.09;101314.13;5059404;28;45317;-77
2023/06/29 01:45:43;;;;;;;;;34.33;28.33;;;;;20.62;87.02;101317.56;5058893;28;45401;-78
2023/06/29 01:48:10;;;;;;;;;38.33;28.33;;;;;20.63;87.34;101319.31;5058586;28;45419;-74
2023/06/29 01:50:36;;;;;;;;;31.67;28.33;;;;;20.63;87.26;101314.81;5059029;28;45427;-76
2023/06/29 01:53:01;;;;;;;;;45.67;35.67;;;;;20.62;87.55;101307.75;5059107;28;45437;-77
2023/06/29 01:55:26;;;;;;;;;38.33;32.67;;;;;20.60;87.74;101293.56;5058488;28;46227;-77
2023/06/29 01:57:52;;;;;;;;;35.33;30.33;;;;;20.64;87.64;101304.97;5050720;28;45891;-76
2023/06/29 02:00:17;;;;;;;;;25.33;22.00;;;;;20.61;87.74;101292.63;5038541;28;45407;-78
2023/06/29 02:02:43;;;;;;;;;35.00;31.33;;;;;20.61;87.68;101292.63;5039002;28;45440;-77
2023/06/29 02:05:08;;;;;;;;;45.00;32.00;;;;;20.68;87.12;101299.41;5051939;28;46598;-75
2023/06/29 02:07:34;;;;;;;;;42.00;32.67;;;;;20.63;87.24;101289.88;5058576;28;45886;-70
2023/06/29 02:10:00;;;;;;;;;36.33;29.67;;;;;20.68;86.90;101296.72;5058598;28;45341;-72
2023/06/29 02:12:25;;;;;;;;;44.00;33.67;;;;;20.68;86.74;101295.84;5058853;28;45368;-72
2023/06/29 02:14:50;;;;;;;;;46.00;33.33;;;;;20.65;86.24;101294.19;5058409;28;46220;-73
2023/06/29 02:17:16;;;;;;;;;43.33;34.00;;;;;20.64;87.38;101288.94;5058489;28;45251;-71
2023/06/29 02:19:41;;;;;;;;;38.00;33.33;;;;;20.64;86.81;101283.56;5058045;28;45394;-70
2023/06/29 02:22:07;;;;;;;;;41.33;35.67;;;;;20.58;87.22;101281.22;5058674;28;45442;-72
2023/06/29 02:24:32;;;;;;;;;45.33;36.00;;;;;20.59;87.57;101282.97;5058387;28;46646;-71
2023/06/29 02:26:57;;;;;;;;;48.67;37.33;;;;;20.62;87.35;101288.13;5058216;28;45505;-71
2023/06/29 02:29:23;;;;;;;;;41.00;33.67;;;;;20.43;87.56;101257.06;5058371;28;45368;-70
2023/06/29 02:31:48;;;;;;;;;42.00;34.33;;;;;20.61;87.64;101287.28;5058620;28;45403;-70
2023/06/29 02:34:14;;;;;;;;;48.67;35.33;;;;;20.61;87.79;101286.44;5058263;28;45818;-71
2023/06/29 02:36:39;;;;;;;;;38.33;34.33;;;;;20.56;87.50;101281.31;5058232;28;45403;-72
2023/06/29 02:39:04;;;;;;;;;38.67;33.67;;;;;20.62;88.06;101285.47;5058361;28;45494;-73
2023/06/29 02:41:30;;;;;;;;;43.00;33.33;;;;;20.60;87.90;101276.66;5058265;28;45363;-70
2023/06/29 02:43:55;;;;;;;;;41.33;33.67;;;;;20.32;87.86;101236.28;5057980;28;45541;-72
2023/06/29 02:46:21;;;;;;;;;44.33;34.33;;;;;20.59;87.94;101274.94;5058206;28;45309;-72
2023/06/29 02:48:47;;;;;;;;;38.00;34.00;;;;;20.58;88.12;101273.19;5057963;28;45292;-71
2023/06/29 02:51:12;;;;;;;;;43.67;35.67;;;;;20.37;87.65;101248.53;5058515;28;45375;-70
2023/06/29 02:53:37;;;;;;;;;38.67;33.00;;;;;20.58;88.01;101275.88;5057822;28;46654;-72
2023/06/29 02:56:03;;;;;;;;;40.00;34.33;;;;;20.55;87.96;101266.22;5057892;28;45209;-70
2023/06/29 02:58:28;;;;;;;;;41.00;33.33;;;;;20.57;88.23;101271.50;5057997;28;45380;-71
2023/06/29 03:00:53;;;;;;;;;44.33;32.67;;;;;20.31;87.83;101229.19;5057629;28;45351;-71
2023/06/29 03:03:19;;;;;;;;;34.00;30.33;;;;;20.57;87.60;101268.81;5057782;28;46328;-72
2023/06/29 03:05:45;;;;;;;;;48.00;34.67;;;;;20.49;87.67;101251.38;5057622;28;45161;-70
2023/06/29 03:08:11;;;;;;;;;39.33;34.67;;;;;20.57;87.72;101261.66;5057690;28;45442;-71
2023/06/29 03:10:36;;;;;;;;;39.67;33.33;;;;;20.59;87.29;101270.44;5057822;28;45425;-71
2023/06/29 03:13:01;;;;;;;;;46.33;36.00;;;;;20.54;88.19;101261.81;5057505;28;46441;-71
2023/06/29 03:15:26;;;;;;;;;45.00;33.67;;;;;20.55;88.14;101260.00;5057867;28;45387;-71
2023/06/29 03:17:52;;;;;;;;;44.33;37.00;;;;;20.53;88.11;101254.75;5057787;28;45501;-70
2023/06/29 03:20:17;;;;;;;;;36.67;31.67;;;;;20.55;87.81;101257.31;5057924;28;45365;-70
2023/06/29 03:22:42;;;;;;;;;49.00;37.33;;;;;20.55;87.78;101252.84;5057518;28;45421;-69
2023/06/29 03:25:10;;;;;;;;;42.67;35.00;;;;;20.51;87.73;101244.13;5057161;28;45852;-69
2023/06/29 03:27:35;;;;;;;;;44.33;34.00;;;;;20.54;87.99;101253.78;5057429;28;45439;-69
2023/06/29 03:30:00;;;;;;;;;47.00;36.00;;;;;20.51;87.40;101252.16;5057143;28;45352;-69
2023/06/29 03:32:26;;;;;;;;;44.67;36.33;;;;;20.51;88.20;101249.47;5056629;28;45381;-68
2023/06/29 03:34:51;;;;;;;;;47.00;35.33;;;;;20.49;88.04;101247.81;5057153;28;45486;-68
2023/06/29 03:37:16;;;;;;;;;40.67;32.00;;;;;20.45;88.20;101244.47;5057422;28;45365;-70
2023/06/29 03:39:42;;;;;;;;;46.33;35.00;;;;;20.44;88.50;101237.41;5057568;28;45368;-71
2023/06/29 03:42:07;;;;;;;;;45.33;35.33;;;;;20.43;88.22;101246.34;5055820;28;46399;-70
2023/06/29 03:44:34;;;;;;;;;48.00;37.33;;;;;20.46;88.29;101239.97;5057094;28;45384;-70
2023/06/29 03:46:59;;;;;;;;;40.67;35.33;;;;;20.47;87.98;101244.38;5057193;28;45365;-70
2023/06/29 03:49:24;;;;;;;;;52.33;38.33;;;;;20.47;87.35;101239.91;5057279;28;45418;-71
2023/06/29 03:51:50;;;;;;;;;46.33;37.67;;;;;20.45;87.99;101244.47;5057109;28;46090;-71
2023/06/29 03:54:15;;;;;;;;;49.67;39.00;;;;;20.45;87.74;101240.94;5057050;28;45297;-71
2023/06/29 03:56:40;;;;;;;;;47.00;37.33;;;;;20.42;87.83;101233.97;5056986;28;45223;-69
2023/06/29 03:59:06;;;;;;;;;50.00;39.33;;;;;20.45;87.72;101240.94;5055924;28;45454;-70
2023/06/29 04:01:31;;;;;;;;;50.67;40.00;;;;;20.40;87.49;101233.16;5056777;28;45501;-71
2023/06/29 04:03:56;;;;;;;;;49.33;37.33;;;;;20.44;87.33;101244.56;5055876;28;45762;-69
2023/06/29 04:06:22;;;;;;;;;49.67;37.00;;;;;20.34;87.12;101220.16;5057152;28;45389;-69
2023/06/29 04:08:47;;;;;;;;;49.33;40.33;;;;;20.45;87.39;101233.78;5057127;28;45391;-68
2023/06/29 04:11:12;;;;;;;;;49.33;37.67;;;;;20.46;87.29;101237.31;5056450;28;46436;-69
2023/06/29 04:13:38;;;;;;;;;48.33;39.67;;;;;20.46;87.23;101232.84;5056920;28;45656;-67
2023/06/29 04:16:04;;;;;;;;;47.67;36.33;;;;;20.43;86.73;101221.44;5057046;28;45506;-68
2023/06/29 04:18:29;;;;;;;;;52.00;39.00;;;;;20.45;86.74;101227.56;5057131;28;45443;-70
2023/06/29 04:20:55;;;;;;;;;43.33;37.00;;;;;20.35;87.17;101208.50;5056678;28;45447;-71
2023/06/29 04:23:20;;;;;;;;;50.00;37.33;;;;;20.45;86.92;101217.72;5056657;28;45412;-70
2023/06/29 04:25:45;;;;;;;;;51.00;37.67;;;;;20.46;87.31;101222.13;5056609;28;45368;-68
2023/06/29 04:28:14;;;;;;;;;52.00;37.67;;;;;20.39;87.13;101209.19;5057025;28;45384;-74
2023/06/29 04:30:40;;;;;;;;;47.00;34.67;;;;;20.43;87.15;101218.75;5056450;28;47154;-74
2023/06/29 04:33:09;;;;;;;;;42.00;36.67;;;;;20.43;87.36;101221.44;5056248;28;45340;-71
2023/06/29 04:35:39;;;;;;;;;41.33;34.67;;;;;20.48;86.78;101227.41;5056675;28;45435;-72
2023/06/29 04:38:05;;;;;;;;;40.33;34.67;;;;;20.48;87.62;101227.41;5056705;28;45764;-75
2023/06/29 04:40:31;;;;;;;;;52.33;37.00;;;;;20.53;87.34;101231.53;5056287;28;46598;-73
2023/06/29 04:42:56;;;;;;;;;47.00;37.00;;;;;20.52;87.46;101235.16;5058255;28;45862;-72
2023/06/29 04:45:24;;;;;;;;;43.00;35.00;;;;;20.53;87.85;101231.53;5060074;28;45323;-73
2023/06/29 04:47:50;;;;;;;;;44.00;34.67;;;;;20.56;87.83;101229.63;5060241;28;45447;-71
2023/06/29 04:50:15;;;;;;;;;46.00;35.67;;;;;20.56;87.54;101230.47;5059557;28;47170;-73
2023/06/29 04:52:41;;;;;;;;;40.67;34.33;;;;;20.54;87.44;101232.41;5059488;28;45593;-70
2023/06/29 04:55:08;;;;;;;;;44.67;33.67;;;;;20.57;87.39;101234.03;5059605;28;45427;-70
2023/06/29 04:57:33;;;;;;;;;52.33;37.00;;;;;20.56;87.74;101237.66;5059844;28;45453;-72
2023/06/29 04:59:58;;;;;;;;;39.67;34.67;;;;;20.52;87.66;101227.13;5059435;28;45349;-72
2023/06/29 05:02:24;;;;;;;;;51.00;37.67;;;;;20.53;87.62;101223.50;5059760;28;45217;-71
2023/06/29 05:04:50;;;;;;;;;52.67;36.33;;;;;20.55;87.27;101218.06;5059616;28;45312;-75
2023/06/29 05:07:15;;;;;;;;;54.00;35.67;;;;;20.60;87.94;101228.50;5060116;28;45490;-71
2023/06/29 05:09:41;;;;;;;;;42.00;33.00;;;;;20.60;87.43;101225.84;5059308;28;46600;-70
2023/06/29 05:12:07;;;;;;;;;48.00;35.67;;;;;20.57;87.02;101224.19;5059448;28;45308;-76
2023/06/29 05:14:32;;;;;;;;;46.00;36.33;;;;;20.62;87.28;101231.94;5059582;28;45563;-74
2023/06/29 05:16:58;;;;;;;;;42.00;34.00;;;;;20.63;87.07;101231.00;5059392;28;45458;-73
2023/06/29 05:19:23;;;;;;;;;47.00;34.67;;;;;20.64;87.74;101236.25;5059266;28;46315;-73
2023/06/29 05:21:49;;;;;;;;;38.33;34.67;;;;;20.70;87.55;101229.72;5059294;28;45478;-73
2023/06/29 05:24:14;;;;;;;;;46.67;36.67;;;;;20.59;86.56;101202.69;5059633;28;45386;-73
2023/06/29 05:26:39;;;;;;;;;46.67;37.33;;;;;20.74;87.31;101225.06;5059324;28;45407;-72
2023/06/29 05:29:05;;;;;;;;;54.67;39.33;;;;;20.75;87.60;101222.28;5059073;28;46518;-72
2023/06/29 05:31:30;;;;;;;;;50.67;37.67;;;;;20.82;87.00;101220.97;5059277;28;45518;-77
2023/06/29 05:33:55;;;;;;;;;45.67;38.00;;;;;20.87;87.04;101224.25;5059398;28;45222;-72
2023/06/29 05:36:21;;;;;;;;;46.33;38.67;;;;;20.87;87.31;101221.59;5059573;28;45377;-73
2023/06/29 05:38:46;;;;;;;;;51.33;37.67;;;;;20.97;85.71;101223.72;5058949;28;45382;-72
2023/06/29 05:41:12;;;;;;;;;43.33;36.00;;;;;21.05;86.40;101224.97;5059033;28;45352;-71
2023/06/29 05:43:37;;;;;;;;;50.67;39.00;;;;;21.09;85.91;101222.16;5059109;28;45239;-72
2023/06/29 05:46:02;;;;;;;;;44.67;32.00;;;;;21.19;85.54;101226.84;5059176;28;45404;-72
2023/06/29 05:48:28;;;;;;;;;47.67;36.33;;;;;21.29;84.77;101232.53;5058652;28;46227;-73
2023/06/29 05:50:53;;;;;;;;;44.67;34.67;;;;;21.35;84.87;101231.28;5058926;28;45573;-72
2023/06/29 05:53:18;;;;;;;;;44.00;35.33;;;;;21.40;84.61;101234.53;5053890;28;45293;-73
2023/06/29 05:55:44;;;;;;;;;44.33;32.67;;;;;21.35;84.72;101228.63;5038637;28;45624;-72
2023/06/29 05:58:09;;;;;;;;;44.00;36.33;;;;;21.38;84.99;101228.44;5038551;28;46215;-73
2023/06/29 06:00:34;;;;;;;;;51.00;37.33;;;;;21.43;84.80;101229.00;5038321;28;45430;-72
2023/06/29 06:03:00;;;;;;;;;44.00;34.67;;;;;21.31;84.54;101200.28;5038595;28;45170;-72
2023/06/29 06:05:25;;;;;;;;;45.67;34.67;;;;;21.56;84.61;101235.34;5039081;28;45210;-72
2023/06/29 06:07:50;;;;;;;;;39.00;28.67;;;;;21.63;84.03;101235.00;5038480;28;45444;-72
2023/06/29 06:10:15;;;;;;;;;43.00;33.67;;;;;21.68;83.43;101215.00;5038343;28;45350;-73
2023/06/29 06:12:41;;;;;;;;;41.00;32.33;;;;;21.80;82.83;101226.75;5038460;28;45744;-73
2023/06/29 06:15:11;;;;;;;;;40.00;33.33;;;;;21.85;82.91;101224.63;5038709;28;45409;-74
2023/06/29 06:17:36;;;;;;;;;46.33;33.33;;;;;21.82;82.41;101226.66;5038337;28;47422;-75
2023/06/29 06:20:04;;;;;;;;;44.33;33.33;;;;;21.81;82.96;101225.78;5038258;28;45910;-74
2023/06/29 06:22:30;;;;;;;;;40.33;34.33;;;;;21.86;82.14;101223.69;5038284;28;45256;-75
2023/06/29 06:24:55;;;;;;;;;45.67;35.67;;;;;21.82;82.36;101230.19;5038598;28;45464;-74
2023/06/29 06:27:20;;;;;;;;;33.67;31.67;;;;;21.85;82.78;101227.31;5038106;28;46483;-74
2023/06/29 06:29:46;;;;;;;;;44.00;33.33;;;;;21.91;82.14;101231.44;5038139;28;45302;-74
2023/06/29 06:32:11;;;;;;;;;34.67;30.00;;;;;21.91;81.84;101226.97;5038368;28;45307;-73
2023/06/29 06:34:37;;;;;;;;;54.67;43.67;;;;;21.82;81.74;101215.94;5038332;28;45256;-73
2023/06/29 06:37:03;;;;;;;;;36.33;31.33;;;;;21.91;82.07;101224.28;5038118;28;45553;-73
2023/06/29 06:39:32;;;;;;;;;35.00;31.33;;;;;22.05;81.63;101246.69;5038011;28;45292;-74
2023/06/29 06:41:57;;;;;;;;;36.67;31.33;;;;;22.04;81.42;101244.94;5037870;28;45392;-73
2023/06/29 06:44:23;;;;;;;;;43.33;33.33;;;;;22.00;82.29;101238.03;5038309;28;45493;-74
2023/06/29 06:46:48;;;;;;;;;42.00;33.33;;;;;21.97;81.65;101230.19;5037740;28;47411;-74
2023/06/29 06:49:14;;;;;;;;;40.33;34.33;;;;;22.01;82.19;101234.41;5038085;28;45244;-74
2023/06/29 06:51:39;;;;;;;;;42.00;33.67;;;;;22.04;82.23;101243.09;5037961;28;45376;-73
2023/06/29 06:54:04;;;;;;;;;44.67;34.33;;;;;22.05;82.04;101230.59;5038158;28;45222;-74
2023/06/29 06:56:30;;;;;;;;;38.00;32.67;;;;;22.12;81.80;101237.28;5037789;28;45358;-74
2023/06/29 06:58:55;;;;;;;;;49.33;36.67;;;;;22.14;81.16;101232.66;5037556;28;45256;-74
2023/06/29 07:01:22;;;;;;;;;42.00;32.67;;;;;22.21;81.63;101228.63;5037696;28;45318;-72
2023/06/29 07:03:47;;;;;;;;;44.33;34.00;;;;;22.31;80.93;101236.13;5037899;28;45425;-74
2023/06/29 07:06:13;;;;;;;;;41.00;34.00;;;;;22.38;80.87;101235.63;5037476;28;45953;-75
2023/06/29 07:08:38;;;;;;;;;46.33;37.00;;;;;22.36;81.04;101223.28;5037551;28;45481;-74
2023/06/29 07:11:04;;;;;;;;;36.67;33.67;;;;;22.46;80.13;101229.75;5037434;28;45442;-73
2023/06/29 07:13:29;;;;;;;;;43.67;34.00;;;;;22.52;80.63;101232.03;5038018;28;45447;-74
2023/06/29 07:15:55;;;;;;;;;41.00;33.67;;;;;22.57;80.39;101223.72;5037446;28;46487;-74
2023/06/29 07:18:21;;;;;;;;;41.00;30.67;;;;;22.52;79.63;101207.03;5037516;28;45386;-74
2023/06/29 07:20:48;;;;;;;;;43.67;35.67;;;;;22.68;79.38;101213.09;5037480;28;45303;-74
2023/06/29 07:23:14;;;;;;;;;40.67;34.67;;;;;22.77;78.88;101219.69;5037600;28;45538;-73
2023/06/29 07:25:39;;;;;;;;;39.67;31.33;;;;;22.72;78.54;101213.78;5037292;28;45911;-74
2023/06/29 07:28:04;;;;;;;;;34.33;31.00;;;;;22.79;79.33;101220.44;5037232;28;45320;-74
2023/06/29 07:30:30;;;;;;;;;40.00;33.67;;;;;22.81;78.90;101218.50;5037426;28;45335;-74
2023/06/29 07:32:55;;;;;;;;;42.67;37.00;;;;;22.84;79.08;101215.63;5037512;28;45545;-74
2023/06/29 07:35:20;;;;;;;;;33.33;29.33;;;;;22.86;78.53;101207.47;5045566;28;46416;-74
2023/06/29 07:37:45;;;;;;;;;34.00;31.33;;;;;22.94;77.67;101207.81;5057390;28;45233;-75
2023/06/29 07:40:11;;;;;;;;;38.00;31.67;;;;;23.02;77.57;101212.66;5057314;28;45442;-75
2023/06/29 07:42:37;;;;;;;;;41.00;33.33;;;;;23.14;77.41;101221.75;5057425;28;45358;-75
2023/06/29 07:45:04;;;;;;;;;41.67;35.00;;;;;23.19;77.00;101207.00;5056939;28;46388;-74
2023/06/29 07:47:29;;;;;;;;;41.33;33.67;;;;;23.31;76.54;101210.72;5056976;28;45934;-74
2023/06/29 07:49:55;;;;;;;;;48.00;34.33;;;;;23.32;76.48;101207.03;5057342;28;45400;-74
2023/06/29 07:52:22;;;;;;;;;35.00;29.33;;;;;23.23;75.73;101178.13;5057562;28;45511;-73
2023/06/29 07:54:47;;;;;;;;;42.00;32.00;;;;;23.27;75.50;101179.63;5055437;28;46556;-73
2023/06/29 07:57:13;;;;;;;;;41.00;33.00;;;;;23.47;75.16;101205.97;5039377;28;45480;-74
2023/06/29 07:59:38;;;;;;;;;44.67;34.67;;;;;23.61;74.62;101206.81;5048191;28;45515;-74
2023/06/29 08:02:05;;;;;;;;;36.67;31.33;;;;;23.74;75.18;101204.97;5037166;28;45776;-74
2023/06/29 08:04:30;;;;;;;;;41.00;32.67;;;;;23.86;74.48;101206.00;5037819;28;46370;-75
2023/06/29 08:06:56;;;;;;;;;42.00;33.33;;;;;23.74;74.26;101178.09;5042417;28;45486;-76
2023/06/29 08:09:21;;;;;;;;;40.33;33.67;;;;;23.95;72.97;101204.47;5041925;28;45286;-75
2023/06/29 08:11:46;;;;;;;;;44.00;34.67;;;;;24.02;72.42;101204.88;5036749;28;45573;-75
2023/06/29 08:14:12;;;;;;;;;40.67;34.33;;;;;24.14;72.77;101207.53;5036686;28;45447;-76
2023/06/29 08:16:37;;;;;;;;;36.67;30.67;;;;;24.24;71.50;101209.53;5036730;28;45469;-74
2023/06/29 08:19:02;;;;;;;;;41.00;32.67;;;;;24.28;71.56;101203.84;5040238;28;45456;-75
2023/06/29 08:21:28;;;;;;;;;43.67;32.33;;;;;24.38;72.11;101203.16;5049541;28;45324;-74
2023/06/29 08:23:53;;;;;;;;;35.33;31.33;;;;;24.40;70.55;101193.13;5040119;28;45423;-74
2023/06/29 08:26:20;;;;;;;;;37.00;33.67;;;;;24.44;70.01;101194.63;5040006;28;45294;-74
2023/06/29 08:28:45;;;;;;;;;46.33;33.33;;;;;24.50;70.82;101189.66;5047752;28;45420;-75
2023/06/29 08:31:12;;;;;;;;;42.00;35.00;;;;;24.41;68.49;101179.56;5060322;28;45350;-74
2023/06/29 08:33:37;;;;;;;;;40.33;32.33;;;;;24.58;69.22;101188.22;5057881;28;46622;-74
2023/06/29 08:36:03;;;;;;;;;40.00;32.00;;;;;24.72;68.32;101195.25;5040876;28;45333;-74
2023/06/29 08:38:28;;;;;;;;;48.33;36.00;;;;;24.83;67.27;101195.31;5059887;28;45343;-74
2023/06/29 08:40:57;;;;;;;;;35.00;32.00;;;;;25.01;66.27;101193.91;5059798;28;45474;-74
2023/06/29 08:43:23;;;;;;;;;45.00;35.33;;;;;25.14;65.41;101198.34;5059665;28;46286;-73
2023/06/29 08:45:48;;;;;;;;;43.33;34.67;;;;;25.24;65.63;101196.69;5059937;28;45391;-74
2023/06/29 08:48:14;;;;;;;;;41.67;33.67;;;;;25.36;64.58;101198.44;5056981;28;45352;-74
2023/06/29 08:51:02;;;;;;;;;40.33;33.00;;;;;25.49;64.53;101197.47;5058198;28;45486;-75
2023/06/29 08:53:28;;;;;;;;;46.33;35.33;;;;;25.53;64.24;101212.41;5059712;28;46441;-74
2023/06/29 08:55:54;;;;;;;;;45.00;35.33;;;;;25.42;63.77;101209.72;5057563;28;45463;-73
2023/06/29 08:58:21;;;;;;;;;48.33;37.33;;;;;25.25;64.30;101205.63;5049095;28;45392;-74
2023/06/29 09:00:47;;;;;;;;;44.67;34.67;;;;;25.10;65.28;101204.97;5039559;28;45462;-75
2023/06/29 09:03:14;;;;;;;;;41.00;35.67;;;;;25.00;64.70;101196.72;5039232;28;45467;-74
2023/06/29 09:05:39;;;;;;;;;45.33;32.33;;;;;25.04;65.32;101198.22;5039351;28;45638;-73
2023/06/29 09:08:05;;;;;;;;;45.33;36.33;;;;;25.07;65.45;101202.50;5039451;28;45538;-73
2023/06/29 09:10:31;;;;;;;;;48.33;38.33;;;;;25.07;65.75;101197.97;5039552;28;45305;-74
2023/06/29 09:12:56;;;;;;;;;41.67;34.67;;;;;25.11;65.24;101186.00;5039330;28;45494;-73
2023/06/29 09:15:25;;;;;;;;;46.67;33.67;;;;;25.26;65.17;101204.66;5039165;28;45722;-72
2023/06/29 09:17:55;;;;;;;;;45.67;37.00;;;;;25.41;64.50;101195.38;5039801;28;45432;-73
2023/06/29 09:20:21;;;;;;;;;40.00;33.33;;;;;25.61;62.84;101188.41;5042158;28;45464;-73
2023/06/29 09:22:51;;;;;;;;;43.33;35.67;;;;;25.89;63.53;101189.75;5048177;28;46622;-73
2023/06/29 09:25:17;;;;;;;;;42.00;36.33;;;;;26.36;60.97;101183.34;5039133;28;45468;-73
2023/06/29 09:27:42;;;;;;;;;43.67;34.67;;;;;26.82;59.79;101187.59;5039188;28;45608;-73
2023/06/29 09:30:14;;;;;;;;;45.00;35.00;;;;;27.20;58.90;101188.00;5037996;28;45278;-72
2023/06/29 09:32:40;;;;;;;;;45.33;36.33;;;;;27.25;57.08;101177.66;5039203;28;46837;-73
2023/06/29 09:35:07;;;;;;;;;43.67;35.00;;;;;27.44;55.98;101183.19;5038729;28;45403;-72
2023/06/29 09:37:35;;;;;;;;;43.00;34.00;;;;;27.34;55.96;101189.53;5039049;28;45471;-74
2023/06/29 09:40:09;;;;;;;;;42.33;35.33;;;;;27.27;55.86;101194.59;5039225;28;45462;-72
2023/06/29 09:42:38;;;;;;;;;53.00;42.67;;;;;27.63;56.64;101201.34;5038517;28;46189;-74
2023/06/29 09:45:11;;;;;;;;;49.00;39.33;;;;;27.94;54.74;101192.34;5038536;28;45281;-73
2023/06/29 09:47:38;;;;;;;;;48.33;36.00;;;;;28.46;53.72;101194.94;5038887;28;45425;-75
2023/06/29 09:50:16;;;;;;;;;41.33;34.67;;;;;29.09;52.51;101191.81;5038956;28;45427;-74
2023/06/29 09:52:46;;;;;;;;;37.33;31.00;;;;;29.55;50.59;101194.72;5038425;28;46800;-72
2023/06/29 09:55:13;;;;;;;;;43.33;33.00;;;;;29.79;49.36;101188.75;5039641;28;45475;-72
2023/06/29 09:57:45;;;;;;;;;42.33;34.00;;;;;29.88;48.34;101191.63;5038569;28;45247;-72
2023/06/29 10:00:12;;;;;;;;;42.00;35.00;;;;;29.98;46.63;101187.84;5050451;28;45309;-72
2023/06/29 10:02:41;;;;;;;;;43.33;34.33;;;;;29.93;46.94;101198.31;5048962;28;47692;-71
2023/06/29 10:05:09;;;;;;;;;33.33;30.00;;;;;29.84;47.14;101196.47;5038333;28;45361;-72
2023/06/29 10:07:36;;;;;;;;;36.33;30.00;;;;;29.58;47.26;101196.28;5039548;28;45412;-72
2023/06/29 10:10:04;;;;;;;;;40.67;31.67;;;;;29.21;47.11;101202.50;5043495;28;45376;-71
2023/06/29 10:12:31;;;;;;;;;36.00;29.00;;;;;28.88;48.19;101191.13;5045433;28;46487;-72
2023/06/29 10:15:08;;;;;;;;;36.67;30.33;;;;;28.79;49.35;101185.56;5037833;28;45610;-72
2023/06/29 10:17:45;;;;;;;;;32.67;31.67;;;;;28.58;49.45;101193.81;5045705;28;45558;-71
2023/06/29 10:20:13;;;;;;;;;32.67;30.67;;;;;28.25;49.28;101189.63;5047123;28;45436;-73
2023/06/29 10:22:40;;;;;;;;;31.00;29.00;;;;;27.99;50.00;101195.56;5058186;28;45602;-72
2023/06/29 10:25:11;;;;;;;;;29.33;26.33;;;;;27.69;50.33;101191.84;5058273;28;45447;-72
2023/06/29 10:27:39;;;;;;;;;34.33;31.00;;;;;27.54;51.48;101198.63;5050490;28;45368;-70
2023/06/29 10:30:06;;;;;;;;;36.33;28.67;;;;;27.37;52.20;101191.97;5046831;28;45415;-72
2023/06/29 10:32:32;;;;;;;;;34.67;30.00;;;;;27.25;52.75;101207.38;5037933;28;45757;-71
2023/06/29 10:35:04;;;;;;;;;40.00;33.00;;;;;27.15;52.84;101198.38;5039856;28;45336;-71
2023/06/29 10:37:47;;;;;;;;;31.33;29.00;;;;;27.01;53.68;101186.03;5053768;28;45316;-72
2023/06/29 10:40:22;;;;;;;;;37.00;31.67;;;;;27.07;54.15;101199.88;5057783;28;45502;-71
2023/06/29 10:42:50;;;;;;;;;34.00;29.33;;;;;27.16;53.76;101191.94;5057810;28;46583;-72
2023/06/29 10:45:16;;;;;;;;;31.00;27.00;;;;;27.42;52.99;101196.00;5057718;28;45439;-72
2023/06/29 10:47:41;;;;;;;;;34.00;27.67;;;;;27.80;52.66;101189.03;5057989;28;45687;-71
2023/06/29 10:50:13;;;;;;;;;29.00;26.00;;;;;28.06;51.88;101196.72;5058442;28;45622;-71
2023/06/29 10:52:40;;;;;;;;;31.00;26.67;;;;;27.98;51.33;101195.69;5057822;28;46691;-72
2023/06/29 10:55:17;;;;;;;;;34.33;28.67;;;;;27.75;51.91;101179.63;5046271;28;45452;-72
2023/06/29 10:57:57;;;;;;;;;28.33;25.67;;;;;27.55;51.58;101165.16;5049110;28;45821;-72
2023/06/29 11:00:25;;;;;;;;;31.33;28.00;;;;;27.61;51.06;101188.97;5041164;28;45297;-71
2023/06/29 11:02:51;;;;;;;;;31.67;24.67;;;;;27.68;51.46;101184.75;5037340;28;45286;-71
2023/06/29 11:05:19;;;;;;;;;23.00;22.33;;;;;27.75;50.98;101180.50;5037649;28;45447;-72
2023/06/29 11:07:49;;;;;;;;;24.33;22.67;;;;;27.76;51.00;101173.22;5037744;28;45491;-72